sensor_id;sensor_type;location;lat;lon;timestamp;pressure;altitude;pressure_sealevel;temperature;humidity
77469;BME280;68840;50.272;12.818;2023-12-20T00:00:06;95692;;;5.1;68.7
77469;BME280;68840;50.272;12.818;2023-12-20T00:02:06;95689;;;5.1;68.7
77469;BME280;68840;50.272;12.818;2023-12-20T00:04:06;95680;;;5.1;68.8
77469;BME280;68840;50.272;12.818;2023-12-20T00:06:05;95675;;;5.2;68.5
77469;BME280;68840;50.272;12.818;2023-12-20T00:08:05;95677;;;5.2;68.5
77469;BME280;68840;50.272;12.818;2023-12-20T00:10:07;95679;;;5.2;68.5
77469;BME280;68840;50.272;12.818;2023-12-20T00:12:06;95674;;;5.2;68.5
77469;BME280;68840;50.272;12.818;2023-12-20T00:14:05;95669;;;5.2;68.7
77469;BME280;68840;50.272;12.818;2023-12-20T00:16:06;95666;;;5.2;68.7
77469;BME280;68840;50.272;12.818;2023-12-20T00:18:06;95661;;;5.2;68.7
77469;BME280;68840;50.272;12.818;2023-12-20T00:20:06;95660;;;5.2;68.8
77469;BME280;68840;50.272;12.818;2023-12-20T00:22:05;95655;;;5.2;68.7
77469;BME280;68840;50.272;12.818;2023-12-20T00:24:05;95648;;;5.2;68.8
77469;BME280;68840;50.272;12.818;2023-12-20T00:26:06;95641;;;5.2;68.7
77469;BME280;68840;50.272;12.818;2023-12-20T00:28:06;95638;;;5.2;68.7
77469;BME280;68840;50.272;12.818;2023-12-20T00:30:06;95638;;;5.2;68.7
77469;BME280;68840;50.272;12.818;2023-12-20T00:32:06;95630;;;5.2;68.7
77469;BME280;68840;50.272;12.818;2023-12-20T00:34:05;95630;;;5.2;68.7
77469;BME280;68840;50.272;12.818;2023-12-20T00:36:06;95632;;;5.2;68.8
77469;BME280;68840;50.272;12.818;2023-12-20T00:38:07;95634;;;5.2;68.9
77469;BME280;68840;50.272;12.818;2023-12-20T00:40:06;95634;;;5.2;68.7
77469;BME280;68840;50.272;12.818;2023-12-20T00:42:05;95635;;;5.2;68.9
77469;BME280;68840;50.272;12.818;2023-12-20T00:44:05;95635;;;5.2;68.9
77469;BME280;68840;50.272;12.818;2023-12-20T00:46:05;95630;;;5.2;69.1
77469;BME280;68840;50.272;12.818;2023-12-20T00:48:06;95622;;;5.2;68.9
77469;BME280;68840;50.272;12.818;2023-12-20T00:50:06;95620;;;5.2;68.9
77469;BME280;68840;50.272;12.818;2023-12-20T00:52:06;95616;;;5.2;69.1
77469;BME280;68840;50.272;12.818;2023-12-20T00:54:05;95613;;;5.2;68.8
77469;BME280;68840;50.272;12.818;2023-12-20T00:56:06;95612;;;5.3;68.7
77469;BME280;68840;50.272;12.818;2023-12-20T00:58:05;95611;;;5.3;68.8
77469;BME280;68840;50.272;12.818;2023-12-20T01:00:06;95610;;;5.3;68.9
77469;BME280;68840;50.272;12.818;2023-12-20T01:02:05;95610;;;5.3;68.7
77469;BME280;68840;50.272;12.818;2023-12-20T01:04:05;95607;;;5.3;68.5
77469;BME280;68840;50.272;12.818;2023-12-20T01:06:05;95603;;;5.4;68.6
77469;BME280;68840;50.272;12.818;2023-12-20T01:08:06;95600;;;5.4;68.5
77469;BME280;68840;50.272;12.818;2023-12-20T01:10:06;95597;;;5.4;68.6
77469;BME280;68840;50.272;12.818;2023-12-20T01:12:06;95597;;;5.4;68.4
77469;BME280;68840;50.272;12.818;2023-12-20T01:14:05;95597;;;5.4;68.3
77469;BME280;68840;50.272;12.818;2023-12-20T01:16:06;95599;;;5.4;68.1
77469;BME280;68840;50.272;12.818;2023-12-20T01:18:05;95598;;;5.4;68.5
77469;BME280;68840;50.272;12.818;2023-12-20T01:20:06;95597;;;5.4;68.4
77469;BME280;68840;50.272;12.818;2023-12-20T01:22:05;95596;;;5.4;68.5
77469;BME280;68840;50.272;12.818;2023-12-20T01:24:06;95598;;;5.4;68.6
77469;BME280;68840;50.272;12.818;2023-12-20T01:26:06;95601;;;5.4;68.4
77469;BME280;68840;50.272;12.818;2023-12-20T01:28:05;95602;;;5.4;68.4
77469;BME280;68840;50.272;12.818;2023-12-20T01:30:07;95599;;;5.4;68.7
77469;BME280;68840;50.272;12.818;2023-12-20T01:32:06;95598;;;5.3;68.4
77469;BME280;68840;50.272;12.818;2023-12-20T01:34:05;95595;;;5.3;68.6
77469;BME280;68840;50.272;12.818;2023-12-20T01:36:06;95593;;;5.3;68.4
77469;BME280;68840;50.272;12.818;2023-12-20T01:38:05;95594;;;5.3;68.8
77469;BME280;68840;50.272;12.818;2023-12-20T01:40:06;95590;;;5.3;68.6
77469;BME280;68840;50.272;12.818;2023-12-20T01:42:05;95590;;;5.3;68.6
77469;BME280;68840;50.272;12.818;2023-12-20T01:44:05;95587;;;5.3;68.7
77469;BME280;68840;50.272;12.818;2023-12-20T01:46:05;95586;;;5.3;68.6
77469;BME280;68840;50.272;12.818;2023-12-20T01:48:08;95587;;;5.3;68.8
77469;BME280;68840;50.272;12.818;2023-12-20T01:50:08;95584;;;5.3;68.7
77469;BME280;68840;50.272;12.818;2023-12-20T01:52:06;95584;;;5.3;68.5
77469;BME280;68840;50.272;12.818;2023-12-20T01:54:06;95582;;;5.3;68.4
77469;BME280;68840;50.272;12.818;2023-12-20T01:56:06;95580;;;5.3;68.6
77469;BME280;68840;50.272;12.818;2023-12-20T01:58:06;95577;;;5.3;68.6
77469;BME280;68840;50.272;12.818;2023-12-20T02:00:06;95575;;;5.3;68.7
77469;BME280;68840;50.272;12.818;2023-12-20T02:02:07;95570;;;5.2;68.8
77469;BME280;68840;50.272;12.818;2023-12-20T02:04:06;95563;;;5.2;68.9
77469;BME280;68840;50.272;12.818;2023-12-20T02:06:06;95562;;;5.2;68.8
77469;BME280;68840;50.272;12.818;2023-12-20T02:08:06;95560;;;5.2;68.7
77469;BME280;68840;50.272;12.818;2023-12-20T02:10:06;95558;;;5.2;68.9
77469;BME280;68840;50.272;12.818;2023-12-20T02:12:06;95556;;;5.2;68.9
77469;BME280;68840;50.272;12.818;2023-12-20T02:14:05;95555;;;5.2;68.8
77469;BME280;68840;50.272;12.818;2023-12-20T02:16:07;95552;;;5.2;68.7
77469;BME280;68840;50.272;12.818;2023-12-20T02:18:06;95551;;;5.2;68.8
77469;BME280;68840;50.272;12.818;2023-12-20T02:20:06;95551;;;5.2;69.0
77469;BME280;68840;50.272;12.818;2023-12-20T02:22:06;95553;;;5.2;68.7
77469;BME280;68840;50.272;12.818;2023-12-20T02:24:06;95553;;;5.2;68.8
77469;BME280;68840;50.272;12.818;2023-12-20T02:26:06;95551;;;5.2;68.9
77469;BME280;68840;50.272;12.818;2023-12-20T02:28:06;95549;;;5.2;68.7
77469;BME280;68840;50.272;12.818;2023-12-20T02:30:06;95544;;;5.2;68.9
77469;BME280;68840;50.272;12.818;2023-12-20T02:32:06;95540;;;5.2;69.0
77469;BME280;68840;50.272;12.818;2023-12-20T02:34:05;95538;;;5.2;68.9
77469;BME280;68840;50.272;12.818;2023-12-20T02:36:06;95538;;;5.2;68.8
77469;BME280;68840;50.272;12.818;2023-12-20T02:38:05;95536;;;5.2;68.8
77469;BME280;68840;50.272;12.818;2023-12-20T02:40:06;95537;;;5.2;68.8
77469;BME280;68840;50.272;12.818;2023-12-20T02:42:06;95538;;;5.2;68.9
77469;BME280;68840;50.272;12.818;2023-12-20T02:44:05;95540;;;5.2;68.9
77469;BME280;68840;50.272;12.818;2023-12-20T02:46:05;95543;;;5.2;68.9
77469;BME280;68840;50.272;12.818;2023-12-20T02:48:06;95541;;;5.2;69.0
77469;BME280;68840;50.272;12.818;2023-12-20T02:50:06;95537;;;5.2;69.1
77469;BME280;68840;50.272;12.818;2023-12-20T02:52:05;95534;;;5.2;69.1
77469;BME280;68840;50.272;12.818;2023-12-20T02:54:06;95530;;;5.2;69.3
77469;BME280;68840;50.272;12.818;2023-12-20T02:56:06;95525;;;5.2;69.1
77469;BME280;68840;50.272;12.818;2023-12-20T02:58:05;95523;;;5.2;69.1
77469;BME280;68840;50.272;12.818;2023-12-20T03:00:06;95525;;;5.2;69.0
77469;BME280;68840;50.272;12.818;2023-12-20T03:02:05;95525;;;5.2;69.0
77469;BME280;68840;50.272;12.818;2023-12-20T03:04:05;95525;;;5.2;68.9
77469;BME280;68840;50.272;12.818;2023-12-20T03:06:05;95524;;;5.2;69.2
77469;BME280;68840;50.272;12.818;2023-12-20T03:08:05;95524;;;5.1;69.3
77469;BME280;68840;50.272;12.818;2023-12-20T03:10:07;95523;;;5.1;69.2
77469;BME280;68840;50.272;12.818;2023-12-20T03:12:07;95521;;;5.1;69.4
77469;BME280;68840;50.272;12.818;2023-12-20T03:14:05;95522;;;5.1;69.5
77469;BME280;68840;50.272;12.818;2023-12-20T03:16:08;95523;;;5.1;69.3
77469;BME280;68840;50.272;12.818;2023-12-20T03:18:06;95520;;;5.1;69.3
77469;BME280;68840;50.272;12.818;2023-12-20T03:20:06;95519;;;5.1;69.3
77469;BME280;68840;50.272;12.818;2023-12-20T03:22:05;95521;;;5.1;69.3
77469;BME280;68840;50.272;12.818;2023-12-20T03:24:05;95523;;;5.1;69.2
77469;BME280;68840;50.272;12.818;2023-12-20T03:26:07;95524;;;5.1;69.2
77469;BME280;68840;50.272;12.818;2023-12-20T03:28:05;95528;;;5.1;69.1
77469;BME280;68840;50.272;12.818;2023-12-20T03:30:06;95528;;;5.0;69.1
77469;BME280;68840;50.272;12.818;2023-12-20T03:32:06;95524;;;5.0;68.9
77469;BME280;68840;50.272;12.818;2023-12-20T03:34:06;95519;;;5.0;69.0
77469;BME280;68840;50.272;12.818;2023-12-20T03:36:06;95518;;;5.0;69.0
77469;BME280;68840;50.272;12.818;2023-12-20T03:38:05;95520;;;5.0;69.0
77469;BME280;68840;50.272;12.818;2023-12-20T03:40:06;95523;;;5.0;69.2
77469;BME280;68840;50.272;12.818;2023-12-20T03:42:06;95524;;;4.9;69.1
77469;BME280;68840;50.272;12.818;2023-12-20T03:44:05;95527;;;4.9;69.3
77469;BME280;68840;50.272;12.818;2023-12-20T03:46:07;95531;;;4.9;69.3
77469;BME280;68840;50.272;12.818;2023-12-20T03:48:06;95535;;;4.9;69.4
77469;BME280;68840;50.272;12.818;2023-12-20T03:50:06;95537;;;4.9;69.2
77469;BME280;68840;50.272;12.818;2023-12-20T03:52:05;95539;;;4.9;69.3
77469;BME280;68840;50.272;12.818;2023-12-20T03:54:05;95540;;;4.9;69.4
77469;BME280;68840;50.272;12.818;2023-12-20T03:56:06;95542;;;4.9;69.4
77469;BME280;68840;50.272;12.818;2023-12-20T03:58:05;95542;;;4.9;69.4
77469;BME280;68840;50.272;12.818;2023-12-20T04:00:10;95539;;;4.9;69.2
77469;BME280;68840;50.272;12.818;2023-12-20T04:02:05;95538;;;4.9;69.2
77469;BME280;68840;50.272;12.818;2023-12-20T04:04:05;95539;;;4.9;69.3
77469;BME280;68840;50.272;12.818;2023-12-20T04:06:05;95535;;;4.9;69.2
77469;BME280;68840;50.272;12.818;2023-12-20T04:08:06;95534;;;4.8;69.3
77469;BME280;68840;50.272;12.818;2023-12-20T04:10:07;95535;;;4.8;69.2
77469;BME280;68840;50.272;12.818;2023-12-20T04:12:06;95536;;;4.8;69.2
77469;BME280;68840;50.272;12.818;2023-12-20T04:14:07;95545;;;4.8;69.1
77469;BME280;68840;50.272;12.818;2023-12-20T04:16:06;95551;;;4.8;69.1
77469;BME280;68840;50.272;12.818;2023-12-20T04:18:06;95548;;;4.8;69.1
77469;BME280;68840;50.272;12.818;2023-12-20T04:20:06;95549;;;4.8;69.0
77469;BME280;68840;50.272;12.818;2023-12-20T04:22:05;95549;;;4.8;69.0
77469;BME280;68840;50.272;12.818;2023-12-20T04:24:06;95550;;;4.8;69.0
77469;BME280;68840;50.272;12.818;2023-12-20T04:26:05;95552;;;4.8;69.0
77469;BME280;68840;50.272;12.818;2023-12-20T04:28:05;95558;;;4.8;69.0
77469;BME280;68840;50.272;12.818;2023-12-20T04:30:07;95557;;;4.8;68.9
77469;BME280;68840;50.272;12.818;2023-12-20T04:32:06;95553;;;4.8;68.8
77469;BME280;68840;50.272;12.818;2023-12-20T04:34:05;95551;;;4.8;68.7
77469;BME280;68840;50.272;12.818;2023-12-20T04:36:06;95553;;;4.8;68.7
77469;BME280;68840;50.272;12.818;2023-12-20T04:38:05;95552;;;4.8;68.6
77469;BME280;68840;50.272;12.818;2023-12-20T04:40:07;95553;;;4.8;68.6
77469;BME280;68840;50.272;12.818;2023-12-20T04:42:05;95553;;;4.8;68.8
77469;BME280;68840;50.272;12.818;2023-12-20T04:44:06;95552;;;4.8;68.8
77469;BME280;68840;50.272;12.818;2023-12-20T04:46:05;95551;;;4.8;68.6
77469;BME280;68840;50.272;12.818;2023-12-20T04:48:06;95552;;;4.8;68.9
77469;BME280;68840;50.272;12.818;2023-12-20T04:50:06;95551;;;4.8;68.7
77469;BME280;68840;50.272;12.818;2023-12-20T04:52:05;95547;;;4.8;68.4
77469;BME280;68840;50.272;12.818;2023-12-20T04:54:05;95547;;;4.7;68.6
77469;BME280;68840;50.272;12.818;2023-12-20T04:56:06;95547;;;4.7;68.7
77469;BME280;68840;50.272;12.818;2023-12-20T04:58:05;95551;;;4.7;68.5
77469;BME280;68840;50.272;12.818;2023-12-20T05:00:08;95555;;;4.7;68.5
77469;BME280;68840;50.272;12.818;2023-12-20T05:02:05;95558;;;4.7;68.5
77469;BME280;68840;50.272;12.818;2023-12-20T05:04:05;95557;;;4.7;68.4
77469;BME280;68840;50.272;12.818;2023-12-20T05:06:06;95556;;;4.7;68.4
77469;BME280;68840;50.272;12.818;2023-12-20T05:08:06;95557;;;4.7;68.8
77469;BME280;68840;50.272;12.818;2023-12-20T05:10:08;95557;;;4.6;68.4
77469;BME280;68840;50.272;12.818;2023-12-20T05:12:06;95558;;;4.6;68.6
77469;BME280;68840;50.272;12.818;2023-12-20T05:14:05;95557;;;4.6;68.6
77469;BME280;68840;50.272;12.818;2023-12-20T05:16:05;95557;;;4.6;68.7
77469;BME280;68840;50.272;12.818;2023-12-20T05:18:05;95561;;;4.6;68.6
77469;BME280;68840;50.272;12.818;2023-12-20T05:20:06;95560;;;4.6;68.6
77469;BME280;68840;50.272;12.818;2023-12-20T05:22:06;95559;;;4.6;68.7
77469;BME280;68840;50.272;12.818;2023-12-20T05:24:05;95556;;;4.6;68.8
77469;BME280;68840;50.272;12.818;2023-12-20T05:26:06;95559;;;4.6;68.5
77469;BME280;68840;50.272;12.818;2023-12-20T05:28:05;95564;;;4.6;68.4
77469;BME280;68840;50.272;12.818;2023-12-20T05:30:06;95565;;;4.6;68.4
77469;BME280;68840;50.272;12.818;2023-12-20T05:32:06;95569;;;4.6;68.3
77469;BME280;68840;50.272;12.818;2023-12-20T05:34:06;95572;;;4.6;68.2
77469;BME280;68840;50.272;12.818;2023-12-20T05:36:09;95571;;;4.5;68.4
77469;BME280;68840;50.272;12.818;2023-12-20T05:38:06;95573;;;4.5;68.3
77469;BME280;68840;50.272;12.818;2023-12-20T05:40:06;95576;;;4.5;68.3
77469;BME280;68840;50.272;12.818;2023-12-20T05:42:05;95580;;;4.4;68.4
77469;BME280;68840;50.272;12.818;2023-12-20T05:44:05;95581;;;4.4;68.5
77469;BME280;68840;50.272;12.818;2023-12-20T05:46:05;95584;;;4.4;68.5
77469;BME280;68840;50.272;12.818;2023-12-20T05:48:06;95585;;;4.4;68.6
77469;BME280;68840;50.272;12.818;2023-12-20T05:50:06;95586;;;4.3;68.6
77469;BME280;68840;50.272;12.818;2023-12-20T05:52:05;95582;;;4.3;68.7
77469;BME280;68840;50.272;12.818;2023-12-20T05:54:05;95581;;;4.3;68.4
77469;BME280;68840;50.272;12.818;2023-12-20T05:56:05;95577;;;4.3;68.6
77469;BME280;68840;50.272;12.818;2023-12-20T05:58:05;95575;;;4.3;68.7
77469;BME280;68840;50.272;12.818;2023-12-20T06:00:06;95579;;;4.2;68.6
77469;BME280;68840;50.272;12.818;2023-12-20T06:02:05;95582;;;4.2;68.8
77469;BME280;68840;50.272;12.818;2023-12-20T06:04:05;95586;;;4.2;68.9
77469;BME280;68840;50.272;12.818;2023-12-20T06:06:07;95588;;;4.2;68.9
77469;BME280;68840;50.272;12.818;2023-12-20T06:08:06;95587;;;4.2;68.9
77469;BME280;68840;50.272;12.818;2023-12-20T06:10:06;95591;;;4.2;68.9
77469;BME280;68840;50.272;12.818;2023-12-20T06:12:07;95588;;;4.2;69.0
77469;BME280;68840;50.272;12.818;2023-12-20T06:14:05;95589;;;4.2;69.1
77469;BME280;68840;50.272;12.818;2023-12-20T06:16:06;95595;;;4.1;69.3
77469;BME280;68840;50.272;12.818;2023-12-20T06:18:05;95598;;;4.1;69.7
77469;BME280;68840;50.272;12.818;2023-12-20T06:20:08;95603;;;4.1;69.8
77469;BME280;68840;50.272;12.818;2023-12-20T06:22:05;95602;;;4.2;69.6
77469;BME280;68840;50.272;12.818;2023-12-20T06:24:05;95602;;;4.2;69.6
77469;BME280;68840;50.272;12.818;2023-12-20T06:26:05;95601;;;4.2;69.8
77469;BME280;68840;50.272;12.818;2023-12-20T06:28:06;95605;;;4.2;69.7
77469;BME280;68840;50.272;12.818;2023-12-20T06:30:06;95611;;;4.2;69.7
77469;BME280;68840;50.272;12.818;2023-12-20T06:32:05;95616;;;4.2;69.6
77469;BME280;68840;50.272;12.818;2023-12-20T06:34:05;95615;;;4.2;69.7
77469;BME280;68840;50.272;12.818;2023-12-20T06:36:05;95611;;;4.3;69.8
77469;BME280;68840;50.272;12.818;2023-12-20T06:38:06;95613;;;4.3;69.6
77469;BME280;68840;50.272;12.818;2023-12-20T06:40:07;95611;;;4.3;69.5
77469;BME280;68840;50.272;12.818;2023-12-20T06:42:05;95614;;;4.3;69.4
77469;BME280;68840;50.272;12.818;2023-12-20T06:44:05;95617;;;4.3;69.5
77469;BME280;68840;50.272;12.818;2023-12-20T06:46:05;95620;;;4.3;69.7
77469;BME280;68840;50.272;12.818;2023-12-20T06:48:05;95622;;;4.3;69.9
77469;BME280;68840;50.272;12.818;2023-12-20T06:50:08;95621;;;4.3;69.7
77469;BME280;68840;50.272;12.818;2023-12-20T06:52:05;95624;;;4.3;69.8
77469;BME280;68840;50.272;12.818;2023-12-20T06:54:05;95629;;;4.3;70.3
77469;BME280;68840;50.272;12.818;2023-12-20T06:56:07;95632;;;4.3;70.1
77469;BME280;68840;50.272;12.818;2023-12-20T06:58:06;95635;;;4.3;70.1
77469;BME280;68840;50.272;12.818;2023-12-20T07:00:06;95641;;;4.4;69.7
77469;BME280;68840;50.272;12.818;2023-12-20T07:02:06;95645;;;4.4;70.0
77469;BME280;68840;50.272;12.818;2023-12-20T07:04:05;95642;;;4.4;70.0
77469;BME280;68840;50.272;12.818;2023-12-20T07:06:05;95643;;;4.4;69.7
77469;BME280;68840;50.272;12.818;2023-12-20T07:08:06;95645;;;4.4;70.1
77469;BME280;68840;50.272;12.818;2023-12-20T07:10:08;95646;;;4.4;70.0
77469;BME280;68840;50.272;12.818;2023-12-20T07:12:06;95650;;;4.4;70.2
77469;BME280;68840;50.272;12.818;2023-12-20T07:14:05;95651;;;4.4;70.1
77469;BME280;68840;50.272;12.818;2023-12-20T07:16:05;95653;;;4.4;70.0
77469;BME280;68840;50.272;12.818;2023-12-20T07:18:06;95655;;;4.4;69.9
77469;BME280;68840;50.272;12.818;2023-12-20T07:20:09;95658;;;4.4;69.7
77469;BME280;68840;50.272;12.818;2023-12-20T07:22:06;95663;;;4.4;70.1
77469;BME280;68840;50.272;12.818;2023-12-20T07:24:06;95666;;;4.4;69.9
77469;BME280;68840;50.272;12.818;2023-12-20T07:26:06;95671;;;4.5;69.8
77469;BME280;68840;50.272;12.818;2023-12-20T07:28:05;95674;;;4.5;70.1
77469;BME280;68840;50.272;12.818;2023-12-20T07:30:06;95678;;;4.5;70.1
77469;BME280;68840;50.272;12.818;2023-12-20T07:32:06;95682;;;4.5;70.1
77469;BME280;68840;50.272;12.818;2023-12-20T07:34:05;95682;;;4.6;69.7
77469;BME280;68840;50.272;12.818;2023-12-20T07:36:06;95682;;;4.6;69.5
77469;BME280;68840;50.272;12.818;2023-12-20T07:38:06;95682;;;4.6;69.9
77469;BME280;68840;50.272;12.818;2023-12-20T07:40:07;95680;;;4.6;69.9
77469;BME280;68840;50.272;12.818;2023-12-20T07:42:05;95680;;;4.6;69.7
77469;BME280;68840;50.272;12.818;2023-12-20T07:44:06;95682;;;4.6;69.8
77469;BME280;68840;50.272;12.818;2023-12-20T07:46:06;95685;;;4.6;69.9
77469;BME280;68840;50.272;12.818;2023-12-20T07:48:06;95686;;;4.6;69.9
77469;BME280;68840;50.272;12.818;2023-12-20T07:50:06;95685;;;4.6;70.2
77469;BME280;68840;50.272;12.818;2023-12-20T07:52:06;95686;;;4.7;70.2
77469;BME280;68840;50.272;12.818;2023-12-20T07:54:07;95681;;;4.7;70.0
77469;BME280;68840;50.272;12.818;2023-12-20T07:56:13;95676;;;4.7;70.3
77469;BME280;68840;50.272;12.818;2023-12-20T07:58:05;95674;;;4.7;70.2
77469;BME280;68840;50.272;12.818;2023-12-20T08:00:06;95674;;;4.7;70.0
77469;BME280;68840;50.272;12.818;2023-12-20T08:02:06;95678;;;4.8;70.4
77469;BME280;68840;50.272;12.818;2023-12-20T08:04:05;95681;;;4.8;70.2
77469;BME280;68840;50.272;12.818;2023-12-20T08:06:05;95680;;;4.8;70.3
77469;BME280;68840;50.272;12.818;2023-12-20T08:08:06;95680;;;4.8;70.4
77469;BME280;68840;50.272;12.818;2023-12-20T08:10:06;95679;;;4.9;70.1
77469;BME280;68840;50.272;12.818;2023-12-20T08:12:06;95679;;;4.9;70.1
77469;BME280;68840;50.272;12.818;2023-12-20T08:14:05;95679;;;4.9;70.1
77469;BME280;68840;50.272;12.818;2023-12-20T08:16:06;95678;;;4.9;70.0
77469;BME280;68840;50.272;12.818;2023-12-20T08:18:06;95677;;;4.9;70.0
77469;BME280;68840;50.272;12.818;2023-12-20T08:20:06;95673;;;5.0;70.1
77469;BME280;68840;50.272;12.818;2023-12-20T08:22:05;95669;;;5.0;69.7
77469;BME280;68840;50.272;12.818;2023-12-20T08:24:06;95664;;;5.0;69.4
77469;BME280;68840;50.272;12.818;2023-12-20T08:26:06;95667;;;5.1;69.4
77469;BME280;68840;50.272;12.818;2023-12-20T08:28:05;95669;;;5.1;69.1
77469;BME280;68840;50.272;12.818;2023-12-20T08:30:08;95672;;;5.1;69.4
77469;BME280;68840;50.272;12.818;2023-12-20T08:32:06;95675;;;5.1;69.5
77469;BME280;68840;50.272;12.818;2023-12-20T08:34:05;95676;;;5.1;69.4
77469;BME280;68840;50.272;12.818;2023-12-20T08:36:06;95675;;;5.1;69.4
77469;BME280;68840;50.272;12.818;2023-12-20T08:38:05;95676;;;5.1;69.6
77469;BME280;68840;50.272;12.818;2023-12-20T08:40:06;95675;;;5.1;69.7
77469;BME280;68840;50.272;12.818;2023-12-20T08:42:06;95674;;;5.2;69.7
77469;BME280;68840;50.272;12.818;2023-12-20T08:44:05;95673;;;5.2;69.4
77469;BME280;68840;50.272;12.818;2023-12-20T08:46:06;95669;;;5.2;69.3
77469;BME280;68840;50.272;12.818;2023-12-20T08:48:06;95669;;;5.2;69.5
77469;BME280;68840;50.272;12.818;2023-12-20T08:50:06;95671;;;5.2;69.4
77469;BME280;68840;50.272;12.818;2023-12-20T08:52:06;95673;;;5.2;69.6
77469;BME280;68840;50.272;12.818;2023-12-20T08:54:07;95671;;;5.3;69.5
77469;BME280;68840;50.272;12.818;2023-12-20T08:56:05;95670;;;5.3;69.3
77469;BME280;68840;50.272;12.818;2023-12-20T08:58:08;95668;;;5.3;69.2
77469;BME280;68840;50.272;12.818;2023-12-20T09:00:07;95670;;;5.3;69.3
77469;BME280;68840;50.272;12.818;2023-12-20T09:02:05;95669;;;5.3;69.4
77469;BME280;68840;50.272;12.818;2023-12-20T09:04:06;95670;;;5.3;69.5
77469;BME280;68840;50.272;12.818;2023-12-20T09:06:06;95673;;;5.3;69.8
77469;BME280;68840;50.272;12.818;2023-12-20T09:08:07;95680;;;5.3;69.8
77469;BME280;68840;50.272;12.818;2023-12-20T09:10:06;95680;;;5.3;70.4
77469;BME280;68840;50.272;12.818;2023-12-20T09:12:06;95684;;;5.3;70.3
77469;BME280;68840;50.272;12.818;2023-12-20T09:14:05;95689;;;5.3;70.3
77469;BME280;68840;50.272;12.818;2023-12-20T09:16:06;95694;;;5.4;70.2
77469;BME280;68840;50.272;12.818;2023-12-20T09:18:06;95697;;;5.4;70.2
77469;BME280;68840;50.272;12.818;2023-12-20T09:20:08;95696;;;5.4;70.3
77469;BME280;68840;50.272;12.818;2023-12-20T09:22:06;95694;;;5.4;70.0
77469;BME280;68840;50.272;12.818;2023-12-20T09:24:05;95694;;;5.4;69.2
77469;BME280;68840;50.272;12.818;2023-12-20T09:26:05;95693;;;5.4;68.9
77469;BME280;68840;50.272;12.818;2023-12-20T09:28:06;95692;;;5.4;68.7
77469;BME280;68840;50.272;12.818;2023-12-20T09:30:06;95688;;;5.4;68.7
77469;BME280;68840;50.272;12.818;2023-12-20T09:32:06;95688;;;5.3;67.9
77469;BME280;68840;50.272;12.818;2023-12-20T09:34:05;95693;;;5.3;68.0
77469;BME280;68840;50.272;12.818;2023-12-20T09:36:06;95698;;;5.3;68.6
77469;BME280;68840;50.272;12.818;2023-12-20T09:38:05;95702;;;5.3;69.7
77469;BME280;68840;50.272;12.818;2023-12-20T09:40:07;95706;;;5.3;70.0
77469;BME280;68840;50.272;12.818;2023-12-20T09:42:06;95705;;;5.4;69.7
77469;BME280;68840;50.272;12.818;2023-12-20T09:44:08;95701;;;5.4;69.9
77469;BME280;68840;50.272;12.818;2023-12-20T09:46:07;95698;;;5.4;70.3
77469;BME280;68840;50.272;12.818;2023-12-20T09:48:07;95697;;;5.5;69.3
77469;BME280;68840;50.272;12.818;2023-12-20T09:50:06;95694;;;5.6;70.4
77469;BME280;68840;50.272;12.818;2023-12-20T09:52:07;95692;;;5.6;70.1
77469;BME280;68840;50.272;12.818;2023-12-20T09:54:05;95692;;;5.7;70.3
77469;BME280;68840;50.272;12.818;2023-12-20T09:56:05;95692;;;5.8;70.0
77469;BME280;68840;50.272;12.818;2023-12-20T09:58:07;95696;;;5.8;70.2
77469;BME280;68840;50.272;12.818;2023-12-20T10:00:07;95696;;;5.9;69.6
77469;BME280;68840;50.272;12.818;2023-12-20T10:02:12;95695;;;5.9;70.4
77469;BME280;68840;50.272;12.818;2023-12-20T10:04:07;95693;;;6.0;69.9
77469;BME280;68840;50.272;12.818;2023-12-20T10:06:06;95691;;;6.1;68.0
77469;BME280;68840;50.272;12.818;2023-12-20T10:08:06;95690;;;6.1;66.9
77469;BME280;68840;50.272;12.818;2023-12-20T10:10:08;95691;;;6.1;66.4
77469;BME280;68840;50.272;12.818;2023-12-20T10:12:06;95690;;;6.1;66.7
77469;BME280;68840;50.272;12.818;2023-12-20T10:14:07;95684;;;6.1;66.0
77469;BME280;68840;50.272;12.818;2023-12-20T10:16:06;95677;;;6.1;66.6
77469;BME280;68840;50.272;12.818;2023-12-20T10:18:06;95673;;;6.1;66.5
77469;BME280;68840;50.272;12.818;2023-12-20T10:20:09;95670;;;6.1;66.5
77469;BME280;68840;50.272;12.818;2023-12-20T10:22:05;95669;;;6.1;65.6
77469;BME280;68840;50.272;12.818;2023-12-20T10:24:05;95666;;;6.0;66.1
77469;BME280;68840;50.272;12.818;2023-12-20T10:26:05;95666;;;6.0;65.5
77469;BME280;68840;50.272;12.818;2023-12-20T10:28:10;95659;;;6.0;65.8
77469;BME280;68840;50.272;12.818;2023-12-20T10:30:06;95661;;;6.0;65.5
77469;BME280;68840;50.272;12.818;2023-12-20T10:32:23;95662;;;5.9;65.4
77469;BME280;68840;50.272;12.818;2023-12-20T10:34:06;95664;;;5.9;66.3
77469;BME280;68840;50.272;12.818;2023-12-20T10:36:06;95665;;;5.9;66.5
77469;BME280;68840;50.272;12.818;2023-12-20T10:38:06;95664;;;5.9;67.0
77469;BME280;68840;50.272;12.818;2023-12-20T10:40:06;95657;;;5.9;66.7
77469;BME280;68840;50.272;12.818;2023-12-20T10:42:06;95658;;;5.9;66.6
77469;BME280;68840;50.272;12.818;2023-12-20T10:44:05;95655;;;5.9;66.8
77469;BME280;68840;50.272;12.818;2023-12-20T10:46:06;95656;;;5.9;67.7
77469;BME280;68840;50.272;12.818;2023-12-20T10:48:07;95650;;;5.9;68.2
77469;BME280;68840;50.272;12.818;2023-12-20T10:50:06;95649;;;5.9;68.8
77469;BME280;68840;50.272;12.818;2023-12-20T10:52:06;95645;;;6.0;68.7
77469;BME280;68840;50.272;12.818;2023-12-20T10:54:05;95642;;;6.1;70.2
77469;BME280;68840;50.272;12.818;2023-12-20T10:56:08;95638;;;6.1;69.8
77469;BME280;68840;50.272;12.818;2023-12-20T10:58:07;95635;;;6.2;68.9
77469;BME280;68840;50.272;12.818;2023-12-20T11:00:09;95632;;;6.3;67.9
77469;BME280;68840;50.272;12.818;2023-12-20T11:02:06;95630;;;6.4;67.2
77469;BME280;68840;50.272;12.818;2023-12-20T11:04:08;95629;;;6.4;66.4
77469;BME280;68840;50.272;12.818;2023-12-20T11:06:10;95627;;;6.4;65.6
77469;BME280;68840;50.272;12.818;2023-12-20T11:08:10;95626;;;6.4;65.0
77469;BME280;68840;50.272;12.818;2023-12-20T11:10:12;95623;;;6.3;64.1
77469;BME280;68840;50.272;12.818;2023-12-20T11:12:09;95626;;;6.3;64.9
77469;BME280;68840;50.272;12.818;2023-12-20T11:14:11;95626;;;6.3;64.9
77469;BME280;68840;50.272;12.818;2023-12-20T11:16:06;95628;;;6.2;64.7
77469;BME280;68840;50.272;12.818;2023-12-20T11:18:06;95627;;;6.2;65.0
77469;BME280;68840;50.272;12.818;2023-12-20T11:20:10;95621;;;6.2;64.5